THY721 LTFM-OSDI
Flight info
| Callsign | THY721 |
|---|---|
| Flight time | N/A |
| Altitude | 35000 |
| Route | VICEN UT57 VEVUD UT341 BAG UA28 TELVO UM856 OBRUK UA28 MUT UL620 VESAR DCT NIKAS R785 BRAVO L513 LEBOR |
| Aircraft | B738/M-SDE2E3FGHIRWXY/LB1 |
Departure
| Time | 2026-05-05 06:14 |
|---|---|
| Airport | İstanbul Airport (LTFM) |
Arrival
| Time | N/A |
|---|---|
| Airport | Damascus International Airport (OSDI) |
| Time | Latitude | Longitude | Altitude | Speed | Heading |
|---|---|---|---|---|---|
| 2026-05-05 05:05 | 41.26331 | 28.73982 | 335 ft | 0 kts | 178° |
| 2026-05-05 05:55 | 41.26333 | 28.73982 | 334 ft | 2 kts | 179° |
| 2026-05-05 05:56 | 41.26347 | 28.73981 | 335 ft | 2 kts | 178° |
| 2026-05-05 05:56 | 41.26363 | 28.73982 | 334 ft | 2 kts | 188° |
| 2026-05-05 05:56 | 41.26377 | 28.73985 | 334 ft | 2 kts | 196° |
| 2026-05-05 05:56 | 41.26392 | 28.73992 | 334 ft | 2 kts | 206° |
| 2026-05-05 05:57 | 41.26404 | 28.74002 | 334 ft | 2 kts | 215° |
| 2026-05-05 05:57 | 41.26416 | 28.74015 | 334 ft | 2 kts | 212° |
| 2026-05-05 05:57 | 41.26430 | 28.74022 | 334 ft | 2 kts | 192° |
| 2026-05-05 05:57 | 41.26445 | 28.74023 | 334 ft | 2 kts | 176° |
| 2026-05-05 05:58 | 41.26460 | 28.74023 | 334 ft | 2 kts | 181° |
| 2026-05-05 05:58 | 41.26475 | 28.74023 | 334 ft | 2 kts | 179° |
| 2026-05-05 05:58 | 41.26487 | 28.74023 | 334 ft | 1 kts | 180° |
| 2026-05-05 05:58 | 41.26496 | 28.74023 | 334 ft | 0 kts | 174° |
| 2026-05-05 06:06 | 41.26487 | 28.74024 | 334 ft | 1 kts | 175° |
| 2026-05-05 06:06 | 41.26465 | 28.74026 | 334 ft | 4 kts | 176° |
| 2026-05-05 06:06 | 41.26427 | 28.74021 | 334 ft | 7 kts | 197° |
| 2026-05-05 06:06 | 41.26391 | 28.73974 | 334 ft | 9 kts | 255° |
| 2026-05-05 06:07 | 41.26414 | 28.73915 | 334 ft | 5 kts | 338° |
| 2026-05-05 06:07 | 41.26468 | 28.73897 | 334 ft | 10 kts | 349° |
| 2026-05-05 06:07 | 41.26557 | 28.73876 | 334 ft | 15 kts | 356° |
| 2026-05-05 06:07 | 41.26670 | 28.73872 | 334 ft | 17 kts | 359° |
| 2026-05-05 06:08 | 41.26787 | 28.73871 | 334 ft | 16 kts | 359° |
| 2026-05-05 06:08 | 41.26897 | 28.73871 | 334 ft | 14 kts | 360° |
| 2026-05-05 06:08 | 41.26952 | 28.73812 | 334 ft | 11 kts | 274° |
| 2026-05-05 06:08 | 41.26951 | 28.73716 | 334 ft | 11 kts | 269° |
| 2026-05-05 06:09 | 41.26950 | 28.73593 | 334 ft | 13 kts | 269° |
| 2026-05-05 06:09 | 41.26949 | 28.73465 | 334 ft | 14 kts | 270° |
| 2026-05-05 06:09 | 41.26947 | 28.73330 | 334 ft | 15 kts | 268° |
| 2026-05-05 06:09 | 41.26946 | 28.73190 | 334 ft | 16 kts | 269° |
| 2026-05-05 06:10 | 41.26943 | 28.73055 | 334 ft | 13 kts | 270° |
| 2026-05-05 06:10 | 41.26898 | 28.72984 | 334 ft | 10 kts | 181° |
| 2026-05-05 06:10 | 41.26836 | 28.72988 | 334 ft | 8 kts | 178° |
| 2026-05-05 06:10 | 41.26780 | 28.72991 | 334 ft | 8 kts | 179° |
| 2026-05-05 06:11 | 41.26714 | 28.72992 | 334 ft | 11 kts | 180° |
| 2026-05-05 06:11 | 41.26623 | 28.72994 | 334 ft | 14 kts | 179° |
| 2026-05-05 06:11 | 41.26514 | 28.72996 | 334 ft | 16 kts | 179° |
| 2026-05-05 06:11 | 41.26402 | 28.72998 | 334 ft | 17 kts | 179° |
| 2026-05-05 06:12 | 41.26291 | 28.73000 | 334 ft | 15 kts | 179° |
| 2026-05-05 06:12 | 41.26210 | 28.72974 | 334 ft | 9 kts | 222° |
| 2026-05-05 06:12 | 41.26186 | 28.72908 | 334 ft | 7 kts | 268° |
| 2026-05-05 06:12 | 41.26189 | 28.72847 | 334 ft | 6 kts | 278° |
| 2026-05-05 06:13 | 41.26197 | 28.72797 | 334 ft | 5 kts | 295° |
| 2026-05-05 06:13 | 41.26234 | 28.72772 | 334 ft | 7 kts | 358° |
| 2026-05-05 06:13 | 41.26309 | 28.72770 | 334 ft | 23 kts | 359° |
| 2026-05-05 06:13 | 41.26734 | 28.72757 | 334 ft | 103 kts | 359° |
| 2026-05-05 06:14 | 41.27670 | 28.72732 | 338 ft | 169 kts | 357° |
| 2026-05-05 06:14 | 41.28929 | 28.72674 | 727 ft | 195 kts | 358° |
| 2026-05-05 06:14 | 41.30341 | 28.72668 | 1560 ft | 208 kts | 1° |
| 2026-05-05 06:14 | 41.31715 | 28.72662 | 2291 ft | 218 kts | 0° |
| 2026-05-05 06:15 | 41.33325 | 28.72593 | 2773 ft | 241 kts | 355° |
| 2026-05-05 06:15 | 41.34913 | 28.72079 | 3753 ft | 245 kts | 339° |
| 2026-05-05 06:15 | 41.36196 | 28.71017 | 4577 ft | 252 kts | 322° |
| 2026-05-05 06:15 | 41.37223 | 28.69514 | 5362 ft | 260 kts | 308° |
| 2026-05-05 06:16 | 41.37944 | 28.67488 | 6180 ft | 270 kts | 289° |